Time;durP1;ratioP1;P1;durP2;ratioP2;P2;SDS_P1;SDS_P2;PMS_P1;PMS_P2;Temp;Humidity;BMP_temperature;BMP_pressure;BME280_temperature;BME280_humidity;BME280_pressure;Samples;Min_cycle;Max_cycle;Signal;HPM_P1;HPM_P2
2021/08/22 00:00:27;;;;;;;10.40;9.40;;;22.20;99.90;;;;;;5033593;28;20406;-61
2021/08/22 00:02:52;;;;;;;10.70;9.60;;;22.30;99.90;;;;;;5033353;28;20413;-61
2021/08/22 00:05:18;;;;;;;11.30;10.33;;;22.30;99.90;;;;;;5033155;28;20179;-61
2021/08/22 00:07:44;;;;;;;13.80;12.53;;;22.20;99.90;;;;;;5032796;28;20175;-61
2021/08/22 00:10:10;;;;;;;12.23;11.00;;;22.30;99.90;;;;;;5033412;28;20195;-61
2021/08/22 00:12:36;;;;;;;10.97;9.93;;;22.30;99.90;;;;;;5033228;28;20171;-61
2021/08/22 00:15:02;;;;;;;9.97;9.00;;;22.20;99.90;;;;;;5033102;28;20457;-61
2021/08/22 00:17:28;;;;;;;10.30;9.40;;;22.20;99.90;;;;;;5033729;28;20175;-61
2021/08/22 00:19:53;;;;;;;13.27;11.97;;;22.30;99.90;;;;;;5033454;28;20526;-60
2021/08/22 00:22:19;;;;;;;13.73;11.53;;;22.30;99.90;;;;;;5032772;28;20174;-60
2021/08/22 00:24:44;;;;;;;9.73;8.27;;;22.20;99.90;;;;;;5033354;28;20511;-62
2021/08/22 00:27:10;;;;;;;9.17;8.27;;;21.70;99.90;;;;;;5033195;28;20172;-60
2021/08/22 00:29:36;;;;;;;9.30;8.40;;;21.40;99.90;;;;;;5032540;28;20203;-61
2021/08/22 00:32:02;;;;;;;10.63;6.40;;;20.90;99.90;;;;;;5032716;28;20190;-60
2021/08/22 00:34:28;;;;;;;5.67;4.90;;;20.40;99.90;;;;;;5033270;28;20190;-60
2021/08/22 00:36:54;;;;;;;6.27;5.50;;;20.00;99.90;;;;;;5033016;28;20402;-61
2021/08/22 00:39:20;;;;;;;5.63;5.10;;;19.90;99.90;;;;;;5031729;28;20659;-61
2021/08/22 00:41:46;;;;;;;5.60;4.50;;;19.70;99.90;;;;;;5033017;28;20406;-60
2021/08/22 00:44:12;;;;;;;7.37;5.00;;;19.40;99.90;;;;;;5033036;28;20413;-61
2021/08/22 00:46:38;;;;;;;6.00;5.07;;;19.20;99.90;;;;;;5031933;28;20203;-61
2021/08/22 00:49:05;;;;;;;6.57;5.37;;;19.20;99.90;;;;;;5032856;28;20187;-60
2021/08/22 00:51:31;;;;;;;4.90;4.50;;;18.90;99.90;;;;;;5032819;28;20778;-61
2021/08/22 00:53:57;;;;;;;5.23;4.40;;;18.90;99.90;;;;;;5033132;28;20453;-61
2021/08/22 00:56:23;;;;;;;4.67;4.20;;;19.00;99.90;;;;;;5032884;28;20402;-61
2021/08/22 00:58:48;;;;;;;4.63;3.73;;;19.00;99.90;;;;;;5031958;28;20659;-60
2021/08/22 01:01:20;;;;;;;5.37;3.83;;;19.20;99.90;;;;;;5024027;28;20588;-61
2021/08/22 01:04:02;;;;;;;4.37;3.87;;;19.10;99.90;;;;;;5031711;28;20194;-59
2021/08/22 01:06:31;;;;;;;5.33;4.20;;;19.30;99.90;;;;;;5025099;28;20398;-60
2021/08/22 01:09:04;;;;;;;4.40;3.77;;;19.60;99.90;;;;;;5032903;28;20413;-61
2021/08/22 01:11:35;;;;;;;6.63;4.50;;;19.70;99.90;;;;;;5032756;28;20894;-61
2021/08/22 01:14:04;;;;;;;6.20;5.07;;;19.70;99.90;;;;;;5032587;28;20934;-60
2021/08/22 01:16:34;;;;;;;4.37;3.90;;;19.70;99.90;;;;;;5032605;28;20498;-60
2021/08/22 01:19:04;;;;;;;6.23;4.10;;;19.60;99.90;;;;;;5036238;28;20493;-61
2021/08/22 01:21:31;;;;;;;5.40;4.90;;;19.70;99.90;;;;;;5035894;28;20402;-62
2021/08/22 01:24:02;;;;;;;5.27;4.40;;;19.40;99.90;;;;;;5035030;28;20516;-61
2021/08/22 01:26:31;;;;;;;4.60;3.90;;;19.20;99.90;;;;;;5036569;28;20386;-61
2021/08/22 01:28:59;;;;;;;5.27;4.50;;;19.30;99.90;;;;;;5036112;28;20864;-62
2021/08/22 01:31:35;;;;;;;7.00;5.13;;;19.30;99.90;;;;;;5035478;28;20406;-60
2021/08/22 01:34:01;;;;;;;10.17;9.17;;;19.20;99.90;;;;;;5036306;28;20426;-60
2021/08/22 01:36:28;;;;;;;7.90;7.00;;;19.00;99.90;;;;;;5036035;28;20418;-61
2021/08/22 01:38:54;;;;;;;5.23;4.73;;;19.00;99.90;;;;;;5034784;28;20795;-60
2021/08/22 01:41:27;;;;;;;5.60;5.10;;;19.00;99.90;;;;;;5036123;28;20409;-61
2021/08/22 01:43:53;;;;;;;6.20;4.73;;;19.20;99.90;;;;;;5036102;28;20481;-61
2021/08/22 01:46:22;;;;;;;4.73;4.30;;;19.10;99.90;;;;;;5035967;28;20413;-61
2021/08/22 01:48:48;;;;;;;4.70;4.30;;;19.10;99.90;;;;;;5035962;28;20441;-61
2021/08/22 01:51:14;;;;;;;5.90;4.93;;;19.00;99.90;;;;;;5036310;28;20406;-61
2021/08/22 01:53:39;;;;;;;6.73;5.20;;;19.00;99.90;;;;;;5035403;28;20194;-60
2021/08/22 01:56:05;;;;;;;5.63;5.13;;;18.90;99.90;;;;;;5035326;28;20671;-61
2021/08/22 01:58:31;;;;;;;5.43;4.93;;;19.00;99.90;;;;;;5035552;28;20190;-61
2021/08/22 02:00:58;;;;;;;5.10;4.63;;;18.90;99.90;;;;;;5035759;28;20772;-61
2021/08/22 02:03:45;;;;;;;5.40;4.83;;;18.90;99.90;;;;;;5035401;28;20452;-61
2021/08/22 02:06:37;;;;;;;5.53;4.50;;;19.20;99.90;;;;;;5035789;28;20874;-61
2021/08/22 02:09:07;;;;;;;5.10;4.57;;;19.30;99.90;;;;;;5034819;28;20508;-61
2021/08/22 02:11:41;;;;;;;4.90;4.40;;;19.40;99.90;;;;;;5035592;28;20525;-61
2021/08/22 02:14:08;;;;;;;4.63;4.23;;;19.60;99.90;;;;;;5035321;28;20517;-61
2021/08/22 02:16:34;;;;;;;5.40;4.30;;;19.70;99.90;;;;;;5035341;28;20771;-61
2021/08/22 02:19:01;;;;;;;4.37;3.97;;;19.60;99.90;;;;;;5035588;28;20805;-60
2021/08/22 02:21:27;;;;;;;4.90;4.50;;;19.50;99.90;;;;;;5035369;28;20417;-61
2021/08/22 02:23:55;;;;;;;5.90;5.20;;;19.50;99.90;;;;;;5035441;28;20414;-61
2021/08/22 02:26:24;;;;;;;5.70;5.20;;;19.50;99.90;;;;;;5035098;28;20418;-61
2021/08/22 02:28:57;;;;;;;8.90;5.90;;;19.40;99.90;;;;;;5034463;28;21012;-61
2021/08/22 02:31:26;;;;;;;6.00;4.80;;;19.40;99.90;;;;;;5035272;28;20469;-61
2021/08/22 02:33:52;;;;;;;5.07;4.37;;;19.30;99.90;;;;;;5034827;28;20529;-61
2021/08/22 02:36:17;;;;;;;5.20;4.53;;;19.50;99.90;;;;;;5034914;28;20834;-61
2021/08/22 02:38:43;;;;;;;4.47;4.00;;;19.40;99.90;;;;;;5033476;28;20274;-61
2021/08/22 02:41:09;;;;;;;4.90;4.40;;;19.40;99.90;;;;;;5034944;28;20167;-61
2021/08/22 02:43:34;;;;;;;5.00;4.50;;;19.40;99.90;;;;;;5034776;28;20159;-61
2021/08/22 02:46:00;;;;;;;4.60;3.27;;;19.40;99.90;;;;;;5034817;28;20159;-61
2021/08/22 02:48:25;;;;;;;4.33;3.70;;;19.30;99.90;;;;;;5034743;28;20186;-61
2021/08/22 02:50:51;;;;;;;5.07;4.53;;;19.30;99.90;;;;;;5034457;28;20532;-60
2021/08/22 02:53:16;;;;;;;4.13;3.73;;;19.40;99.90;;;;;;5034810;28;20171;-61
2021/08/22 02:55:42;;;;;;;4.53;4.03;;;19.40;99.90;;;;;;5034318;28;20195;-61
2021/08/22 02:58:08;;;;;;;4.43;4.03;;;19.50;99.90;;;;;;5034390;28;20163;-59
2021/08/22 03:00:33;;;;;;;5.83;4.20;;;19.40;99.90;;;;;;5034582;28;20243;-61
2021/08/22 03:02:59;;;;;;;4.90;3.87;;;19.30;99.90;;;;;;5034715;28;20171;-61
2021/08/22 03:05:24;;;;;;;4.73;3.87;;;19.30;99.90;;;;;;5034499;28;20174;-59
2021/08/22 03:07:50;;;;;;;4.07;3.67;;;19.40;99.90;;;;;;5034137;28;20183;-61
2021/08/22 03:10:16;;;;;;;4.63;4.00;;;19.40;99.90;;;;;;5033903;28;20199;-61
2021/08/22 03:12:41;;;;;;;4.20;3.80;;;19.40;99.90;;;;;;5016511;28;20175;-61
2021/08/22 03:15:08;;;;;;;4.37;3.90;;;19.30;99.90;;;;;;5033740;28;20194;-61
2021/08/22 03:17:33;;;;;;;4.50;3.73;;;19.50;99.90;;;;;;5034129;28;20217;-61
2021/08/22 03:20:02;;;;;;;4.30;3.90;;;19.60;99.90;;;;;;5033738;28;20901;-61
2021/08/22 03:22:28;;;;;;;4.23;3.83;;;19.80;99.90;;;;;;5034065;28;20241;-60
2021/08/22 03:24:54;;;;;;;3.93;3.53;;;19.80;99.90;;;;;;5033711;28;20922;-61
2021/08/22 03:27:19;;;;;;;3.90;3.60;;;19.80;99.90;;;;;;5034054;28;20167;-59
2021/08/22 03:29:45;;;;;;;4.07;3.77;;;19.80;99.90;;;;;;5034845;28;20217;-60
2021/08/22 03:32:10;;;;;;;4.90;4.30;;;19.70;99.90;;;;;;5034006;28;20164;-59
2021/08/22 03:34:36;;;;;;;4.90;4.43;;;19.60;99.90;;;;;;5034393;28;20578;-61
2021/08/22 03:37:02;;;;;;;6.20;5.60;;;19.60;99.90;;;;;;5033731;28;20171;-61
2021/08/22 03:39:28;;;;;;;4.83;4.43;;;19.50;99.90;;;;;;5032671;28;20195;-60
2021/08/22 03:41:53;;;;;;;6.10;3.67;;;19.40;99.90;;;;;;5033316;28;20398;-60
2021/08/22 03:44:19;;;;;;;4.40;4.00;;;19.50;99.90;;;;;;5033919;28;20172;-61
2021/08/22 03:46:45;;;;;;;4.87;3.77;;;19.50;99.90;;;;;;5033630;28;20186;-61
2021/08/22 03:49:10;;;;;;;4.70;4.30;;;19.60;99.90;;;;;;5032381;28;20203;-61
2021/08/22 03:51:36;;;;;;;5.27;4.47;;;19.60;99.90;;;;;;5033737;28;20190;-61
2021/08/22 03:54:01;;;;;;;5.70;4.40;;;19.60;99.90;;;;;;5033958;28;20539;-61
2021/08/22 03:56:27;;;;;;;5.70;4.90;;;19.70;99.90;;;;;;5032590;28;20217;-61
2021/08/22 03:58:53;;;;;;;4.43;4.03;;;19.60;99.90;;;;;;5033474;28;20576;-60
2021/08/22 04:01:18;;;;;;;5.20;4.70;;;19.60;99.90;;;;;;5034058;28;20576;-61
2021/08/22 04:03:44;;;;;;;4.97;4.53;;;19.50;99.90;;;;;;5032874;28;20254;-60
2021/08/22 04:06:10;;;;;;;5.70;4.60;;;19.50;99.90;;;;;;5033520;28;20507;-61
2021/08/22 04:08:36;;;;;;;4.90;4.40;;;19.70;99.90;;;;;;5033681;28;20683;-58
2021/08/22 04:11:02;;;;;;;4.30;3.60;;;19.70;99.90;;;;;;5033380;28;20174;-61
2021/08/22 04:13:28;;;;;;;4.23;3.80;;;19.80;99.90;;;;;;5033747;28;20759;-61
2021/08/22 04:15:53;;;;;;;6.37;5.77;;;19.80;99.90;;;;;;5033292;28;20171;-61
2021/08/22 04:18:19;;;;;;;5.73;4.80;;;19.80;99.90;;;;;;5032695;28;20213;-61
2021/08/22 04:20:45;;;;;;;4.80;4.30;;;19.80;99.90;;;;;;5033612;28;20167;-61
2021/08/22 04:23:11;;;;;;;5.33;4.83;;;19.80;99.90;;;;;;5033200;28;20209;-61
2021/08/22 04:25:37;;;;;;;4.77;4.27;;;19.80;99.90;;;;;;5033294;28;20406;-61
2021/08/22 04:28:06;;;;;;;5.20;4.80;;;19.70;99.90;;;;;;5033144;28;20406;-61
2021/08/22 04:30:31;;;;;;;4.37;3.97;;;19.80;99.90;;;;;;5033591;28;20461;-61
2021/08/22 04:32:57;;;;;;;4.80;4.40;;;19.80;99.90;;;;;;5033437;28;20469;-59
2021/08/22 04:35:22;;;;;;;6.83;4.63;;;19.90;99.90;;;;;;5032641;28;20194;-57
2021/08/22 04:37:48;;;;;;;4.97;4.53;;;19.90;99.90;;;;;;5033229;28;20689;-61
2021/08/22 04:40:14;;;;;;;5.03;4.50;;;20.00;99.90;;;;;;5032273;28;20233;-60
2021/08/22 04:42:39;;;;;;;5.50;4.60;;;20.00;99.90;;;;;;5033500;28;20537;-61
2021/08/22 04:45:05;;;;;;;5.20;4.70;;;19.90;99.90;;;;;;5033292;28;20646;-61
2021/08/22 04:47:31;;;;;;;5.07;4.57;;;19.90;99.90;;;;;;5032955;28;20527;-61
2021/08/22 04:49:57;;;;;;;5.73;5.23;;;19.80;99.90;;;;;;5033135;28;20441;-61
2021/08/22 04:52:22;;;;;;;6.03;4.97;;;19.80;99.90;;;;;;5034168;28;20642;-61
2021/08/22 04:54:48;;;;;;;5.20;4.70;;;19.70;99.90;;;;;;5036716;28;20614;-61
2021/08/22 04:57:14;;;;;;;5.50;4.20;;;19.60;99.90;;;;;;5036810;28;20217;-61
2021/08/22 04:59:39;;;;;;;5.13;4.50;;;19.60;99.90;;;;;;5036293;28;20269;-61
2021/08/22 05:02:05;;;;;;;6.20;5.13;;;19.60;99.90;;;;;;5036536;28;20172;-61
2021/08/22 05:04:32;;;;;;;5.33;4.83;;;19.60;99.90;;;;;;5036370;28;20167;-60
2021/08/22 05:06:57;;;;;;;6.20;4.87;;;19.50;99.90;;;;;;5036665;28;20186;-61
2021/08/22 05:09:23;;;;;;;6.00;5.37;;;19.50;99.90;;;;;;5036554;28;20930;-61
2021/08/22 05:11:49;;;;;;;5.07;4.30;;;19.70;99.90;;;;;;5036823;28;20183;-60
2021/08/22 05:14:14;;;;;;;5.30;4.53;;;19.90;99.90;;;;;;5036250;28;20600;-61
2021/08/22 05:16:41;;;;;;;4.73;4.33;;;20.10;99.90;;;;;;5036945;28;20164;-61
2021/08/22 05:19:07;;;;;;;4.60;3.93;;;20.10;99.90;;;;;;5036287;28;20568;-61
2021/08/22 05:21:33;;;;;;;4.70;4.10;;;20.10;99.90;;;;;;5018565;28;20410;-61
2021/08/22 05:23:58;;;;;;;5.10;4.60;;;20.20;99.90;;;;;;5035872;28;20418;-61
2021/08/22 05:26:25;;;;;;;5.47;4.43;;;20.30;99.90;;;;;;5036968;28;20228;-61
2021/08/22 05:28:52;;;;;;;4.27;3.87;;;20.40;99.90;;;;;;5035619;28;20230;-61
2021/08/22 05:31:17;;;;;;;6.67;4.73;;;20.40;99.90;;;;;;5036376;28;20419;-60
2021/08/22 05:33:44;;;;;;;4.87;3.93;;;20.60;99.90;;;;;;5035711;28;20406;-60
2021/08/22 05:36:15;;;;;;;7.07;3.77;;;20.70;99.90;;;;;;5036177;28;20168;-61
2021/08/22 05:38:40;;;;;;;4.67;4.27;;;20.80;99.90;;;;;;5035013;28;20444;-61
2021/08/22 05:41:06;;;;;;;5.10;3.80;;;20.90;99.90;;;;;;5036003;28;20402;-61
2021/08/22 05:43:31;;;;;;;4.03;3.70;;;20.90;99.90;;;;;;5035988;28;20164;-61
2021/08/22 05:45:57;;;;;;;4.93;4.43;;;20.90;99.90;;;;;;5036669;28;20180;-61
2021/08/22 05:48:23;;;;;;;4.57;4.17;;;21.00;99.90;;;;;;5034567;28;20191;-61
2021/08/22 05:50:48;;;;;;;4.40;4.00;;;20.90;99.90;;;;;;5035742;28;20178;-61
2021/08/22 05:53:14;;;;;;;7.03;3.73;;;20.90;99.90;;;;;;5035676;28;20199;-61
2021/08/22 05:55:39;;;;;;;5.60;4.00;;;21.00;99.90;;;;;;5035739;28;20183;-61
2021/08/22 05:58:05;;;;;;;4.90;4.40;;;21.00;99.90;;;;;;5035825;28;20170;-61
2021/08/22 06:00:30;;;;;;;7.00;4.47;;;21.10;99.90;;;;;;5036257;28;20167;-60
2021/08/22 06:02:56;;;;;;;6.10;4.70;;;21.20;99.90;;;;;;5035135;28;20171;-61
2021/08/22 06:05:22;;;;;;;7.33;5.17;;;21.30;99.90;;;;;;5035238;28;20250;-60
2021/08/22 06:07:47;;;;;;;4.50;4.10;;;21.30;99.90;;;;;;5035521;28;20196;-58
2021/08/22 06:10:13;;;;;;;4.87;4.17;;;21.30;99.90;;;;;;5035517;28;20229;-59
2021/08/22 06:12:39;;;;;;;4.67;4.30;;;21.50;99.90;;;;;;5035473;28;20510;-60
2021/08/22 06:15:05;;;;;;;4.80;4.10;;;21.50;99.90;;;;;;5017534;28;20191;-61
2021/08/22 06:17:30;;;;;;;4.57;4.17;;;21.60;99.90;;;;;;5035400;28;20266;-59
2021/08/22 06:19:56;;;;;;;5.70;5.10;;;21.50;99.90;;;;;;5035505;28;20521;-61
2021/08/22 06:22:21;;;;;;;4.80;4.40;;;21.50;99.90;;;;;;5035353;28;20159;-61
2021/08/22 06:24:47;;;;;;;5.50;3.90;;;21.60;99.90;;;;;;5035101;28;20168;-61
2021/08/22 06:27:14;;;;;;;5.40;4.50;;;21.70;99.90;;;;;;5035232;28;20185;-61
2021/08/22 06:29:40;;;;;;;6.87;5.03;;;21.90;99.90;;;;;;5034794;28;20583;-61
2021/08/22 06:32:06;;;;;;;5.53;5.00;;;21.90;99.90;;;;;;5035616;28;20481;-61
2021/08/22 06:34:31;;;;;;;6.30;5.70;;;21.80;99.90;;;;;;5034585;28;20184;-61
2021/08/22 06:36:57;;;;;;;7.77;5.83;;;21.80;99.90;;;;;;5034953;28;20428;-61
2021/08/22 06:39:23;;;;;;;5.37;4.80;;;21.80;99.90;;;;;;5034599;28;20232;-61
2021/08/22 06:41:48;;;;;;;5.67;5.20;;;21.90;99.90;;;;;;5035136;28;20166;-61
2021/08/22 06:44:15;;;;;;;6.93;5.90;;;21.90;99.90;;;;;;5035035;28;20171;-61
2021/08/22 06:46:41;;;;;;;6.07;4.43;;;22.10;99.90;;;;;;5034844;28;20164;-60
2021/08/22 06:49:07;;;;;;;5.23;4.83;;;22.20;99.90;;;;;;5032789;28;20492;-62
2021/08/22 06:51:34;;;;;;;4.73;4.20;;;22.20;99.90;;;;;;5034627;28;20787;-61
2021/08/22 06:53:59;;;;;;;5.27;4.87;;;22.30;99.90;;;;;;5034371;28;20438;-60
2021/08/22 06:56:25;;;;;;;5.13;4.60;;;22.30;99.90;;;;;;5034648;28;20399;-61
2021/08/22 06:58:51;;;;;;;5.80;5.20;;;22.40;99.90;;;;;;5034457;28;20196;-61
2021/08/22 07:01:16;;;;;;;5.80;5.20;;;22.40;99.90;;;;;;5034572;28;20582;-61
2021/08/22 07:03:42;;;;;;;5.00;4.60;;;21.90;99.90;;;;;;5034296;28;20233;-61
2021/08/22 07:06:08;;;;;;;5.23;4.80;;;21.90;99.90;;;;;;5034524;28;20165;-61
2021/08/22 07:08:33;;;;;;;5.23;4.23;;;22.20;99.90;;;;;;5034163;28;20233;-61
2021/08/22 07:10:59;;;;;;;5.63;5.13;;;22.30;99.90;;;;;;5034565;28;20243;-61
2021/08/22 07:13:24;;;;;;;5.93;5.27;;;22.50;99.90;;;;;;5034719;28;20167;-60
2021/08/22 07:15:50;;;;;;;5.97;5.13;;;22.50;99.90;;;;;;5033871;28;20542;-61
2021/08/22 07:18:15;;;;;;;4.93;4.27;;;22.50;99.90;;;;;;5033743;28;20195;-61
2021/08/22 07:20:41;;;;;;;5.03;4.43;;;22.40;99.90;;;;;;5034816;28;20205;-61
2021/08/22 07:23:07;;;;;;;4.50;4.00;;;22.40;99.90;;;;;;5033952;28;20534;-61
2021/08/22 07:25:32;;;;;;;5.37;4.87;;;22.40;99.90;;;;;;5033974;28;20167;-61
2021/08/22 07:27:58;;;;;;;5.73;4.20;;;22.40;99.90;;;;;;5033842;28;20179;-61
2021/08/22 07:30:25;;;;;;;5.10;4.70;;;22.40;99.90;;;;;;5034210;28;20226;-61
2021/08/22 07:32:51;;;;;;;6.90;5.07;;;22.60;99.90;;;;;;5033552;28;20176;-61
2021/08/22 07:35:17;;;;;;;5.30;4.80;;;22.50;99.90;;;;;;5033947;28;20453;-61
2021/08/22 07:37:43;;;;;;;5.53;5.03;;;22.60;99.90;;;;;;5033854;28;20398;-58
2021/08/22 07:40:08;;;;;;;5.20;4.80;;;22.80;99.90;;;;;;5033742;28;20191;-60
2021/08/22 07:42:35;;;;;;;6.13;4.97;;;22.80;99.90;;;;;;5033914;28;20230;-61
2021/08/22 07:45:02;;;;;;;5.17;4.50;;;22.80;99.90;;;;;;5033868;28;20258;-61
2021/08/22 07:47:27;;;;;;;4.70;4.30;;;22.60;99.90;;;;;;5033527;28;20472;-61
2021/08/22 07:49:53;;;;;;;6.00;4.63;;;22.70;99.90;;;;;;5033613;28;20433;-61
2021/08/22 07:52:22;;;;;;;5.53;4.80;;;22.90;99.90;;;;;;5034293;28;20164;-60
2021/08/22 07:54:48;;;;;;;5.00;4.60;;;23.10;99.90;;;;;;5033389;28;20191;-61
2021/08/22 07:57:14;;;;;;;5.20;4.70;;;23.30;99.90;;;;;;5034130;28;20420;-61
2021/08/22 07:59:39;;;;;;;4.90;4.40;;;23.10;99.90;;;;;;5033814;28;20179;-61
2021/08/22 08:02:05;;;;;;;5.10;4.53;;;23.00;99.90;;;;;;5033665;28;20163;-61
2021/08/22 08:04:31;;;;;;;5.03;4.53;;;22.90;99.90;;;;;;5033230;28;20377;-61
2021/08/22 08:06:56;;;;;;;6.60;4.30;;;23.20;99.90;;;;;;5033449;28;20171;-61
2021/08/22 08:09:22;;;;;;;4.90;4.30;;;23.50;99.90;;;;;;5033195;28;20236;-60
2021/08/22 08:11:47;;;;;;;8.03;5.03;;;23.70;99.90;;;;;;5033960;28;20540;-60
2021/08/22 08:14:13;;;;;;;5.20;4.70;;;23.80;99.90;;;;;;5033289;28;20233;-60
2021/08/22 08:16:39;;;;;;;4.90;4.50;;;23.90;99.90;;;;;;5033290;28;20172;-60
2021/08/22 08:19:04;;;;;;;5.53;4.83;;;24.10;99.90;;;;;;5032780;28;20199;-60
2021/08/22 08:21:30;;;;;;;5.47;4.93;;;24.40;99.90;;;;;;5033510;28;20167;-60
2021/08/22 08:23:56;;;;;;;6.20;5.07;;;24.00;99.90;;;;;;5033183;28;20668;-60
2021/08/22 08:26:22;;;;;;;4.90;4.23;;;23.40;99.90;;;;;;5033733;28;20163;-61
2021/08/22 08:28:47;;;;;;;5.67;4.70;;;23.40;99.90;;;;;;5036581;28;20544;-60
2021/08/22 08:31:13;;;;;;;5.80;5.30;;;23.60;99.90;;;;;;5037518;28;20178;-61
2021/08/22 08:33:39;;;;;;;5.63;5.07;;;24.00;99.90;;;;;;5036771;28;20687;-60
2021/08/22 08:36:05;;;;;;;6.33;4.30;;;24.10;99.90;;;;;;5037609;28;20202;-59
2021/08/22 08:38:31;;;;;;;6.77;5.13;;;24.20;99.90;;;;;;5037041;28;20418;-59
2021/08/22 08:41:00;;;;;;;6.17;4.37;;;24.20;99.90;;;;;;5037313;28;20175;-59
2021/08/22 08:43:25;;;;;;;5.40;4.97;;;24.30;99.90;;;;;;5036930;28;20163;-61
2021/08/22 08:46:05;;;;;;;5.30;4.70;;;24.20;99.90;;;;;;5036873;28;20405;-61
2021/08/22 08:48:35;;;;;;;4.93;4.50;;;24.00;99.90;;;;;;5036770;28;20227;-59
2021/08/22 08:51:31;;;;;;;5.77;5.27;;;23.90;99.90;;;;;;5036921;28;20897;-60
2021/08/22 08:54:04;;;;;;;7.10;4.77;;;24.00;99.90;;;;;;5037095;28;20465;-60
2021/08/22 08:56:38;;;;;;;5.07;4.57;;;24.20;99.90;;;;;;5036771;28;20900;-61
2021/08/22 08:59:03;;;;;;;5.50;5.00;;;24.30;99.90;;;;;;5036895;28;20469;-61
2021/08/22 09:01:29;;;;;;;5.97;4.83;;;24.60;99.90;;;;;;5036695;28;20401;-61
2021/08/22 09:04:26;;;;;;;4.60;4.20;;;24.00;99.90;;;;;;5036693;28;20221;-60
2021/08/22 09:07:24;;;;;;;7.93;5.90;;;24.50;99.90;;;;;;5036934;28;20155;-60
2021/08/22 09:10:27;;;;;;;6.00;5.50;;;24.50;99.90;;;;;;4990144;28;20429;-61
2021/08/22 09:13:17;;;;;;;5.70;5.10;;;24.30;99.90;;;;;;5036006;28;20420;-60
2021/08/22 09:16:07;;;;;;;5.53;5.03;;;24.00;99.90;;;;;;5036244;28;20442;-60
2021/08/22 09:19:10;;;;;;;6.70;4.93;;;24.00;99.90;;;;;;5035918;28;20432;-60
2021/08/22 09:21:54;;;;;;;7.20;5.30;;;24.20;99.90;;;;;;5036548;28;20400;-61
2021/08/22 09:24:31;;;;;;;5.67;5.07;;;24.20;99.90;;;;;;5036107;28;20382;-61
2021/08/22 09:27:34;;;;;;;5.37;4.87;;;24.50;99.90;;;;;;5036476;28;20775;-61
2021/08/22 09:30:23;;;;;;;5.43;4.77;;;24.80;99.90;;;;;;5037322;28;20457;-61
2021/08/22 09:33:41;;;;;;;5.27;4.77;;;24.90;99.90;;;;;;5036735;28;20846;-61
2021/08/22 09:36:55;;;;;;;4.93;4.50;;;25.20;99.90;;;;;;5036348;28;20482;-60
2021/08/22 09:39:57;;;;;;;4.60;4.20;;;25.60;99.90;;;;;;4959796;28;20433;-61
2021/08/22 09:43:04;;;;;;;5.23;4.73;;;25.70;99.90;;;;;;5034975;28;20855;-61
2021/08/22 09:46:08;;;;;;;5.10;4.60;;;25.40;99.90;;;;;;5035646;28;20421;-61
2021/08/22 09:49:08;;;;;;;5.20;4.70;;;25.40;99.90;;;;;;5035243;28;20472;-61
2021/08/22 09:52:01;;;;;;;5.00;4.50;;;25.30;99.90;;;;;;5035738;28;20497;-61
2021/08/22 09:55:03;;;;;;;5.27;4.80;;;25.40;99.90;;;;;;5035691;28;20438;-61
2021/08/22 09:57:46;;;;;;;5.13;4.70;;;25.40;99.90;;;;;;5035530;28;20928;-61
2021/08/22 10:00:33;;;;;;;5.20;4.70;;;25.50;99.90;;;;;;5035444;28;20414;-61
2021/08/22 10:03:35;;;;;;;5.10;4.70;;;25.60;99.90;;;;;;5035420;28;20409;-61
2021/08/22 10:06:19;;;;;;;6.70;4.90;;;25.50;99.90;;;;;;5035448;28;20492;-61
2021/08/22 10:09:02;;;;;;;5.80;4.77;;;25.40;99.90;;;;;;5035637;28;20437;-61
2021/08/22 10:12:00;;;;;;;4.87;4.40;;;25.50;99.90;;;;;;5034096;28;20430;-61
2021/08/22 10:14:26;;;;;;;5.10;4.60;;;25.30;99.90;;;;;;5034175;28;20465;-60
2021/08/22 10:16:56;;;;;;;6.83;5.27;;;24.90;99.90;;;;;;5035338;28;20402;-61
2021/08/22 10:19:23;;;;;;;4.50;4.10;;;24.30;99.90;;;;;;5015115;28;20434;-61
2021/08/22 10:22:09;;;;;;;4.87;4.40;;;24.20;99.90;;;;;;5015503;28;20887;-61
2021/08/22 10:24:38;;;;;;;4.90;4.50;;;24.30;99.90;;;;;;5014910;28;20857;-61
2021/08/22 10:27:07;;;;;;;5.20;4.80;;;24.50;99.90;;;;;;5015211;28;20446;-60
2021/08/22 10:29:57;;;;;;;5.90;5.40;;;24.60;99.90;;;;;;5014859;28;20966;-61
2021/08/22 10:32:23;;;;;;;5.43;4.93;;;24.50;99.90;;;;;;5014933;28;20414;-61
2021/08/22 10:35:34;;;;;;;5.93;5.43;;;24.10;99.90;;;;;;5014841;28;20445;-61
2021/08/22 10:38:18;;;;;;;6.00;5.43;;;24.10;99.90;;;;;;4916575;29;20514;-61
2021/08/22 10:40:44;;;;;;;5.90;5.40;;;23.70;99.90;;;;;;5013974;28;20494;-61
2021/08/22 10:43:09;;;;;;;6.57;5.83;;;23.60;99.90;;;;;;5015481;28;20887;-61
2021/08/22 10:45:47;;;;;;;5.23;4.83;;;23.60;99.90;;;;;;5014751;28;20168;-61
2021/08/22 10:48:22;;;;;;;6.13;5.63;;;23.70;99.90;;;;;;5025015;28;20175;-60
2021/08/22 10:50:59;;;;;;;7.80;6.70;;;23.70;99.90;;;;;;5034459;28;20882;-61
2021/08/22 10:53:26;;;;;;;6.20;5.70;;;23.50;99.90;;;;;;5034520;28;20532;-61
2021/08/22 10:55:51;;;;;;;7.13;6.43;;;23.40;99.90;;;;;;5034625;28;20448;-61
2021/08/22 10:58:17;;;;;;;7.03;6.47;;;23.20;99.90;;;;;;5034522;28;20508;-61
2021/08/22 11:00:43;;;;;;;5.90;5.23;;;23.40;99.90;;;;;;5034336;28;20231;-61
2021/08/22 11:03:17;;;;;;;7.80;6.60;;;23.10;99.90;;;;;;5033678;28;20171;-60
2021/08/22 11:05:44;;;;;;;6.93;6.33;;;23.10;99.90;;;;;;5034229;28;20409;-61
2021/08/22 11:08:16;;;;;;;7.90;6.87;;;22.90;99.90;;;;;;5034401;28;20398;-61
2021/08/22 11:11:08;;;;;;;7.20;6.43;;;22.80;99.90;;;;;;5033991;28;20464;-61
2021/08/22 11:13:37;;;;;;;7.30;6.60;;;23.00;99.90;;;;;;5032200;28;20421;-61
2021/08/22 11:16:10;;;;;;;8.87;6.80;;;22.90;99.90;;;;;;5033140;28;20480;-61
2021/08/22 11:18:37;;;;;;;7.60;6.80;;;22.80;99.90;;;;;;5034944;28;20422;-59
2021/08/22 11:21:03;;;;;;;5.47;4.97;;;22.30;99.90;;;;;;5033429;28;20402;-62
2021/08/22 11:23:29;;;;;;;4.50;4.10;;;22.00;99.90;;;;;;5033704;28;20433;-60
2021/08/22 11:26:04;;;;;;;4.10;3.37;;;21.60;99.90;;;;;;5033893;28;20410;-60
2021/08/22 11:28:29;;;;;;;3.50;3.07;;;21.40;99.90;;;;;;5032898;28;20468;-60
2021/08/22 11:30:55;;;;;;;4.30;2.90;;;21.30;99.90;;;;;;5033807;28;20397;-60
2021/08/22 11:33:21;;;;;;;3.17;2.90;;;21.40;99.90;;;;;;5034003;28;20163;-58
2021/08/22 11:35:47;;;;;;;3.20;2.90;;;21.40;99.90;;;;;;5032941;28;20191;-60
2021/08/22 11:38:16;;;;;;;2.37;2.17;;;21.50;99.90;;;;;;5033998;28;20225;-60
2021/08/22 11:40:43;;;;;;;2.33;2.13;;;21.60;99.90;;;;;;5033620;28;20402;-60
2021/08/22 11:43:10;;;;;;;2.27;2.03;;;21.30;99.90;;;;;;5033340;28;20409;-60
2021/08/22 11:45:37;;;;;;;2.30;2.10;;;21.40;99.90;;;;;;5033285;28;20497;-60
2021/08/22 11:48:04;;;;;;;2.00;1.90;;;21.80;99.90;;;;;;5033346;28;20899;-60
2021/08/22 11:50:33;;;;;;;2.27;2.07;;;22.00;99.90;;;;;;5033346;28;20414;-60
2021/08/22 11:53:01;;;;;;;2.43;2.13;;;21.60;99.90;;;;;;5033402;28;20469;-60
2021/08/22 11:55:32;;;;;;;2.17;1.90;;;22.00;99.90;;;;;;5033624;28;20454;-60
2021/08/22 11:58:17;;;;;;;3.40;3.10;;;22.20;99.90;;;;;;5033604;28;20398;-59
2021/08/22 12:00:50;;;;;;;2.80;2.40;;;22.20;99.90;;;;;;5033152;28;20925;-60
2021/08/22 12:03:19;;;;;;;2.47;2.27;;;22.20;99.90;;;;;;5032634;28;20889;-60
2021/08/22 12:05:55;;;;;;;2.60;2.40;;;22.20;99.90;;;;;;5033281;28;20958;-60
2021/08/22 12:08:22;;;;;;;2.73;2.40;;;22.00;99.90;;;;;;5033438;28;20418;-60
2021/08/22 12:10:48;;;;;;;2.57;2.30;;;22.00;99.90;;;;;;5033223;28;20409;-60
2021/08/22 12:13:18;;;;;;;5.00;2.37;;;21.70;99.90;;;;;;5033490;28;20501;-60
2021/08/22 12:15:45;;;;;;;2.93;2.20;;;21.80;99.90;;;;;;5033045;28;20197;-59
2021/08/22 12:18:26;;;;;;;3.67;2.50;;;21.80;99.90;;;;;;5033798;28;20394;-60
2021/08/22 12:20:54;;;;;;;2.77;2.37;;;21.70;99.90;;;;;;5033105;28;20914;-59
2021/08/22 12:23:31;;;;;;;2.40;2.20;;;21.30;99.90;;;;;;5033140;28;20464;-57
2021/08/22 12:26:17;;;;;;;2.80;2.40;;;21.30;99.90;;;;;;5032978;28;20772;-60
2021/08/22 12:28:43;;;;;;;2.90;2.67;;;21.20;99.90;;;;;;5033035;28;20461;-60
2021/08/22 12:31:11;;;;;;;2.13;1.97;;;21.10;99.90;;;;;;5033280;28;20410;-60
2021/08/22 12:33:42;;;;;;;2.10;1.90;;;21.10;99.90;;;;;;5034024;28;20188;-60
2021/08/22 12:36:12;;;;;;;2.70;2.47;;;21.20;99.90;;;;;;5033529;28;20437;-60
2021/08/22 12:38:46;;;;;;;2.63;2.20;;;20.90;99.90;;;;;;5033230;28;20414;-60
2021/08/22 12:41:51;;;;;;;3.03;2.50;;;20.70;99.90;;;;;;5033328;28;20389;-59
2021/08/22 12:44:18;;;;;;;4.03;2.30;;;20.60;99.90;;;;;;5012192;28;20500;-61
2021/08/22 12:46:49;;;;;;;2.70;2.00;;;20.40;99.90;;;;;;5033593;28;20394;-60
2021/08/22 12:49:15;;;;;;;2.53;2.20;;;20.50;99.90;;;;;;5033658;28;20867;-61
2021/08/22 12:52:09;;;;;;;2.60;2.40;;;20.40;99.90;;;;;;5033718;28;20433;-61
2021/08/22 12:54:36;;;;;;;2.80;2.50;;;20.40;99.90;;;;;;5032485;28;20537;-61
2021/08/22 12:57:02;;;;;;;3.00;2.70;;;20.50;99.90;;;;;;5032688;28;20473;-61
2021/08/22 12:59:28;;;;;;;2.70;2.13;;;20.80;99.90;;;;;;5032548;28;20441;-61